Time;durP1;ratioP1;P1;durP2;ratioP2;P2;SDS_P1;SDS_P2;PMS_P1;PMS_P2;Temp;Humidity;BMP_temperature;BMP_pressure;BME280_temperature;BME280_humidity;BME280_pressure;Samples;Min_cycle;Max_cycle;Signal;HPM_P1;HPM_P2
2022/10/13 00:00:48;;;;;;;487.00;457.77;;;9.80;45.20;;;;;;4951914;28;20217;-74
2022/10/13 00:03:14;;;;;;;462.97;433.47;;;9.80;45.30;;;;;;4956841;28;20197;-75
2022/10/13 00:05:45;;;;;;;534.17;497.50;;;9.80;45.40;;;;;;4955539;29;20433;-74
2022/10/13 00:08:12;;;;;;;404.43;377.83;;;9.80;45.00;;;;;;4956685;28;20500;-74
2022/10/13 00:10:39;;;;;;;501.43;472.17;;;9.70;45.20;;;;;;4956695;28;20914;-75
2022/10/13 00:13:06;;;;;;;533.20;504.43;;;9.60;45.30;;;;;;4956220;28;20433;-74
2022/10/13 00:15:32;;;;;;;372.73;348.67;;;9.70;46.60;;;;;;4955397;29;20539;-73
2022/10/13 00:17:58;;;;;;;615.40;571.80;;;9.60;45.10;;;;;;4956609;28;20508;-75
2022/10/13 00:20:23;;;;;;;588.90;551.80;;;9.60;45.90;;;;;;4955207;29;20216;-75
2022/10/13 00:22:49;;;;;;;524.20;489.47;;;9.70;45.40;;;;;;4956264;28;20197;-75
2022/10/13 00:25:14;;;;;;;486.53;457.80;;;9.60;45.60;;;;;;4956547;28;20181;-73
2022/10/13 00:27:40;;;;;;;362.67;340.90;;;9.60;45.50;;;;;;4956396;28;20174;-75
2022/10/13 00:30:06;;;;;;;481.67;453.67;;;9.60;46.30;;;;;;4956334;28;20239;-75
2022/10/13 00:32:32;;;;;;;321.90;301.93;;;9.60;45.00;;;;;;4955001;29;20192;-74
2022/10/13 00:34:57;;;;;;;397.90;372.93;;;9.60;45.80;;;;;;4955364;29;20265;-73
2022/10/13 00:37:23;;;;;;;410.90;384.17;;;9.50;45.30;;;;;;4956336;28;20237;-73
2022/10/13 00:39:49;;;;;;;574.57;538.53;;;9.40;45.50;;;;;;4956166;28;20201;-74
2022/10/13 00:42:15;;;;;;;570.93;532.57;;;9.50;45.90;;;;;;4956004;28;20485;-74
2022/10/13 00:45:00;;;;;;;642.80;603.13;;;9.50;45.50;;;;;;4956467;28;20190;-75
2022/10/13 00:47:29;;;;;;;525.67;492.77;;;9.50;45.60;;;;;;4956459;28;20725;-74
2022/10/13 00:49:56;;;;;;;541.00;506.00;;;9.40;45.30;;;;;;4954912;29;20427;-74
2022/10/13 00:52:24;;;;;;;424.10;398.63;;;9.40;46.10;;;;;;4955743;28;20794;-71
2022/10/13 00:54:50;;;;;;;353.40;329.97;;;9.40;45.90;;;;;;4956282;28;20500;-73
2022/10/13 00:57:18;;;;;;;686.43;642.53;;;9.40;46.70;;;;;;4954600;29;20885;-73
2022/10/13 00:59:44;;;;;;;487.27;459.53;;;9.30;45.30;;;;;;4954450;28;20556;-75
2022/10/13 01:02:09;;;;;;;436.37;409.00;;;9.20;46.10;;;;;;4955478;28;20512;-74
2022/10/13 01:04:44;;;;;;;541.13;511.43;;;9.20;46.60;;;;;;4955767;28;20205;-76
2022/10/13 01:07:10;;;;;;;505.57;475.10;;;9.10;45.90;;;;;;4954230;28;20276;-73
2022/10/13 01:09:41;;;;;;;779.70;723.47;;;9.10;46.60;;;;;;4955645;28;20428;-74
2022/10/13 01:12:28;;;;;;;668.80;624.27;;;9.10;46.60;;;;;;4955148;28;20492;-74
2022/10/13 01:15:24;;;;;;;471.20;441.73;;;9.10;46.60;;;;;;4955474;28;20421;-74
2022/10/13 01:18:10;;;;;;;538.57;503.80;;;9.00;47.10;;;;;;4955360;29;20505;-74
2022/10/13 01:20:55;;;;;;;408.50;383.10;;;9.10;46.60;;;;;;4955476;28;20472;-74
2022/10/13 01:23:54;;;;;;;506.93;476.17;;;9.30;47.70;;;;;;4955568;28;21008;-74
2022/10/13 01:26:44;;;;;;;318.97;300.17;;;9.30;46.60;;;;;;4955334;28;20441;-74
2022/10/13 01:29:48;;;;;;;501.23;471.83;;;9.30;46.80;;;;;;4953992;28;20429;-74
2022/10/13 01:32:24;;;;;;;503.57;473.20;;;9.20;46.60;;;;;;4954824;28;20434;-73
2022/10/13 01:35:08;;;;;;;591.23;553.87;;;9.20;45.80;;;;;;4955094;28;20413;-73
2022/10/13 01:38:01;;;;;;;465.43;437.97;;;9.20;47.30;;;;;;4955151;29;20491;-74
2022/10/13 01:40:46;;;;;;;509.53;477.60;;;9.30;47.90;;;;;;4954929;28;20869;-73
2022/10/13 01:43:23;;;;;;;662.07;624.33;;;9.40;47.40;;;;;;4981240;23;20496;-68
2022/10/13 01:45:54;;;;;;;606.13;571.33;;;9.40;47.70;;;;;;4974303;28;20772;-68
2022/10/13 01:48:21;;;;;;;625.23;586.47;;;9.50;48.90;;;;;;4989238;28;20507;-68
2022/10/13 01:50:47;;;;;;;459.97;428.47;;;9.50;49.20;;;;;;4974361;28;20826;-68
2022/10/13 01:53:16;;;;;;;414.80;388.87;;;9.70;51.20;;;;;;4974049;28;20440;-68
2022/10/13 01:55:54;;;;;;;722.17;671.97;;;9.70;49.10;;;;;;4974531;28;20419;-68
2022/10/13 01:58:20;;;;;;;757.23;706.20;;;9.80;49.10;;;;;;4973066;28;20413;-68
2022/10/13 02:01:21;;;;;;;860.80;800.93;;;9.90;48.60;;;;;;4973737;28;20490;-68
2022/10/13 02:04:08;;;;;;;817.63;760.73;;;9.90;49.30;;;;;;4973966;28;20433;-68
2022/10/13 02:06:57;;;;;;;632.23;589.20;;;10.00;48.90;;;;;;4973883;28;20451;-68
2022/10/13 02:09:40;;;;;;;519.13;486.43;;;10.10;47.50;;;;;;4973950;28;20409;-68
2022/10/13 02:12:13;;;;;;;394.67;370.93;;;10.30;47.10;;;;;;4973489;28;20421;-68
2022/10/13 02:14:41;;;;;;;542.00;506.70;;;10.30;46.60;;;;;;4973761;28;20443;-68
2022/10/13 02:17:09;;;;;;;463.20;433.00;;;10.50;46.10;;;;;;4972495;28;20481;-68
2022/10/13 02:19:37;;;;;;;449.07;421.80;;;10.50;45.80;;;;;;4973663;28;20543;-68
2022/10/13 02:22:04;;;;;;;369.23;348.07;;;10.60;46.20;;;;;;4972098;28;20520;-68
2022/10/13 02:24:31;;;;;;;535.10;498.17;;;10.70;46.60;;;;;;4973540;28;20432;-69
2022/10/13 02:26:56;;;;;;;491.53;460.40;;;10.80;45.80;;;;;;4973664;28;20419;-68
2022/10/13 02:29:22;;;;;;;530.20;497.00;;;10.90;45.90;;;;;;4973621;28;20475;-68
2022/10/13 02:31:48;;;;;;;490.00;459.63;;;11.00;44.70;;;;;;4973367;28;20181;-70
2022/10/13 02:34:14;;;;;;;453.93;428.63;;;11.00;44.40;;;;;;4973310;28;20437;-68
2022/10/13 02:36:39;;;;;;;517.00;482.70;;;11.00;44.10;;;;;;4973352;28;20239;-68
2022/10/13 02:39:07;;;;;;;377.10;354.90;;;11.10;43.90;;;;;;4973497;28;20447;-68
2022/10/13 02:41:33;;;;;;;520.80;487.07;;;11.10;44.30;;;;;;4971730;28;20212;-69
2022/10/13 02:43:58;;;;;;;719.63;667.83;;;11.20;44.00;;;;;;4971894;28;20499;-68
2022/10/13 02:46:24;;;;;;;653.13;615.03;;;11.20;43.50;;;;;;4973269;28;20179;-68
2022/10/13 02:48:50;;;;;;;381.23;359.57;;;11.30;43.30;;;;;;4973377;28;20228;-69
2022/10/13 02:51:16;;;;;;;705.67;662.07;;;11.30;43.80;;;;;;4972853;28;20820;-69
2022/10/13 02:53:42;;;;;;;430.83;404.60;;;11.30;43.60;;;;;;4973117;28;20428;-69
2022/10/13 02:56:07;;;;;;;426.33;401.27;;;11.30;44.60;;;;;;4973134;28;20416;-69
2022/10/13 02:58:34;;;;;;;565.47;528.90;;;11.30;44.80;;;;;;4973161;28;20173;-69
2022/10/13 03:01:12;;;;;;;573.70;534.73;;;11.40;43.80;;;;;;4972790;28;20208;-69
2022/10/13 03:03:38;;;;;;;595.43;554.30;;;11.50;42.60;;;;;;4973124;28;20440;-69
2022/10/13 03:06:04;;;;;;;520.50;488.10;;;11.60;42.70;;;;;;4973006;28;20422;-69
2022/10/13 03:08:32;;;;;;;460.60;429.63;;;11.60;42.30;;;;;;4971829;28;20823;-69
2022/10/13 03:10:57;;;;;;;628.67;587.50;;;11.60;42.30;;;;;;4971427;28;20432;-69
2022/10/13 03:13:23;;;;;;;482.20;452.50;;;11.60;42.50;;;;;;4971644;28;20452;-69
2022/10/13 03:15:49;;;;;;;617.90;580.00;;;11.60;42.70;;;;;;4977417;28;20212;-69
2022/10/13 03:18:15;;;;;;;535.07;502.83;;;11.60;42.20;;;;;;4977206;28;20253;-69
2022/10/13 03:20:40;;;;;;;391.23;368.73;;;11.70;42.30;;;;;;4975875;28;20201;-70
2022/10/13 03:23:06;;;;;;;874.80;809.57;;;11.70;42.50;;;;;;4975217;28;20441;-69
2022/10/13 03:25:33;;;;;;;797.67;736.80;;;11.60;42.30;;;;;;4975601;28;20598;-69
2022/10/13 03:27:58;;;;;;;463.83;436.50;;;11.60;42.80;;;;;;4974825;28;20418;-70
2022/10/13 03:30:25;;;;;;;428.90;401.87;;;11.70;42.50;;;;;;4975097;28;20423;-69
2022/10/13 03:32:50;;;;;;;779.53;728.40;;;11.70;42.80;;;;;;4976053;28;20265;-70
2022/10/13 03:35:16;;;;;;;477.70;450.00;;;11.80;41.70;;;;;;4974535;28;20871;-69
2022/10/13 03:37:42;;;;;;;565.00;527.83;;;11.80;41.20;;;;;;4979028;28;20220;-70
2022/10/13 03:40:08;;;;;;;408.57;382.17;;;11.90;40.70;;;;;;4979402;28;20252;-70
2022/10/13 03:42:37;;;;;;;465.83;435.43;;;11.90;41.10;;;;;;4978346;28;20712;-70
2022/10/13 03:45:04;;;;;;;468.60;437.03;;;12.00;40.40;;;;;;4980284;28;20926;-70
2022/10/13 03:47:29;;;;;;;682.47;631.83;;;12.00;39.80;;;;;;4980026;28;20415;-70
2022/10/13 03:49:55;;;;;;;600.10;561.13;;;11.90;39.90;;;;;;4980300;28;20422;-70
2022/10/13 03:52:21;;;;;;;477.60;447.07;;;11.90;40.10;;;;;;4980010;28;20278;-69
2022/10/13 03:54:47;;;;;;;489.03;458.67;;;11.90;40.50;;;;;;4980925;28;20271;-70
2022/10/13 03:57:12;;;;;;;460.57;429.93;;;11.90;39.80;;;;;;4979177;28;20440;-70
2022/10/13 03:59:39;;;;;;;541.20;506.60;;;11.90;39.90;;;;;;4979660;28;20209;-70
2022/10/13 04:02:05;;;;;;;514.33;482.57;;;11.80;39.40;;;;;;4977294;28;20262;-70
2022/10/13 04:04:31;;;;;;;587.70;545.57;;;11.70;39.80;;;;;;4979429;28;21036;-69
2022/10/13 04:06:56;;;;;;;591.23;549.83;;;11.50;39.90;;;;;;4976935;28;20439;-70
2022/10/13 04:09:22;;;;;;;322.10;302.93;;;11.40;41.00;;;;;;4979695;28;20598;-70
2022/10/13 04:11:51;;;;;;;642.37;595.23;;;11.30;41.30;;;;;;4979558;28;20177;-69
2022/10/13 04:14:17;;;;;;;460.03;431.07;;;11.20;41.20;;;;;;4978021;28;20201;-69
2022/10/13 04:16:42;;;;;;;421.03;395.50;;;11.30;41.90;;;;;;4978175;28;20416;-70
2022/10/13 04:19:11;;;;;;;587.20;548.73;;;11.30;41.00;;;;;;4977167;28;20796;-70
2022/10/13 04:21:37;;;;;;;489.73;458.27;;;11.10;41.20;;;;;;4978279;28;20528;-70
2022/10/13 04:24:04;;;;;;;329.20;310.40;;;11.00;42.20;;;;;;4977276;28;20432;-70
2022/10/13 04:26:32;;;;;;;602.33;562.10;;;11.00;42.80;;;;;;4978280;28;20267;-68
2022/10/13 04:28:58;;;;;;;324.57;305.63;;;10.90;42.10;;;;;;4978132;28;20452;-69
2022/10/13 04:31:26;;;;;;;318.07;299.30;;;10.90;42.10;;;;;;4976804;28;20463;-70
2022/10/13 04:33:52;;;;;;;668.53;618.40;;;10.90;43.50;;;;;;4975481;28;20445;-69
2022/10/13 04:36:18;;;;;;;363.93;340.67;;;10.80;42.00;;;;;;4976451;28;20500;-69
2022/10/13 04:38:44;;;;;;;285.80;265.83;;;10.70;42.60;;;;;;4976500;28;20512;-69
2022/10/13 04:41:11;;;;;;;316.17;298.23;;;10.70;42.70;;;;;;4976292;28;20456;-70
2022/10/13 04:43:36;;;;;;;274.70;257.37;;;10.50;42.80;;;;;;4976420;28;20213;-70
2022/10/13 04:46:04;;;;;;;335.33;315.23;;;10.50;43.00;;;;;;4975176;28;20516;-69
2022/10/13 04:48:29;;;;;;;263.40;246.37;;;10.40;43.20;;;;;;4974354;28;20231;-70
2022/10/13 04:51:06;;;;;;;426.47;398.80;;;10.40;44.20;;;;;;4974100;28;20512;-70
2022/10/13 04:53:32;;;;;;;322.40;303.67;;;10.40;43.90;;;;;;4974506;28;20937;-70
2022/10/13 04:56:04;;;;;;;398.30;374.80;;;10.30;44.00;;;;;;4975314;28;20424;-70
2022/10/13 04:58:31;;;;;;;562.53;524.63;;;10.40;43.00;;;;;;4975781;28;20429;-71
2022/10/13 05:00:56;;;;;;;274.17;256.87;;;10.30;43.50;;;;;;4975111;28;20464;-69
2022/10/13 05:03:23;;;;;;;637.40;591.97;;;10.20;43.20;;;;;;4975127;28;20443;-70
2022/10/13 05:05:49;;;;;;;509.83;476.37;;;10.00;43.80;;;;;;4975111;28;20181;-70
2022/10/13 05:08:15;;;;;;;681.67;637.97;;;9.90;45.40;;;;;;4975143;28;20413;-69
2022/10/13 05:10:40;;;;;;;365.50;342.37;;;9.90;46.00;;;;;;4973438;28;20436;-70
2022/10/13 05:13:06;;;;;;;597.67;558.10;;;10.00;45.10;;;;;;4974657;28;20235;-70
2022/10/13 05:15:31;;;;;;;512.17;482.10;;;10.00;44.80;;;;;;4973413;28;20223;-70
2022/10/13 05:17:58;;;;;;;606.23;565.67;;;9.90;45.40;;;;;;4974693;28;20185;-69
2022/10/13 05:20:24;;;;;;;677.60;632.63;;;9.90;46.50;;;;;;4974555;28;20210;-70
2022/10/13 05:22:49;;;;;;;482.80;448.37;;;9.80;45.40;;;;;;4974439;28;20415;-70
2022/10/13 05:25:15;;;;;;;362.73;339.03;;;9.80;45.80;;;;;;4974708;28;20184;-70
2022/10/13 05:27:40;;;;;;;541.70;507.23;;;9.80;46.50;;;;;;4973247;28;20204;-71
2022/10/13 05:30:07;;;;;;;272.80;253.60;;;9.80;45.90;;;;;;4974658;28;20540;-70
2022/10/13 05:32:34;;;;;;;704.63;656.40;;;9.70;46.40;;;;;;4973275;28;20197;-71
2022/10/13 05:34:59;;;;;;;767.23;715.37;;;9.70;45.50;;;;;;4974450;28;20444;-68
2022/10/13 05:37:25;;;;;;;725.50;681.00;;;9.80;46.20;;;;;;4974381;28;20849;-69
2022/10/13 05:39:50;;;;;;;340.97;318.37;;;9.70;46.40;;;;;;4973085;28;20208;-69
2022/10/13 05:42:16;;;;;;;291.30;272.47;;;9.70;47.10;;;;;;4974120;28;20662;-68
2022/10/13 05:44:42;;;;;;;499.00;468.10;;;9.80;47.70;;;;;;4972984;28;20256;-68
2022/10/13 05:47:07;;;;;;;419.17;392.97;;;9.90;46.90;;;;;;4974370;28;20184;-69
2022/10/13 05:49:35;;;;;;;715.27;666.23;;;9.90;45.90;;;;;;4974521;28;20188;-68
2022/10/13 05:52:05;;;;;;;678.77;633.47;;;9.80;45.70;;;;;;4973951;28;20607;-69
2022/10/13 05:54:55;;;;;;;474.63;447.47;;;9.70;47.00;;;;;;4974206;28;20490;-69
2022/10/13 05:57:30;;;;;;;493.77;464.10;;;9.80;47.20;;;;;;4974725;28;20424;-69
2022/10/13 06:00:10;;;;;;;804.00;748.33;;;9.80;47.10;;;;;;4974579;28;20471;-69
2022/10/13 06:03:13;;;;;;;775.77;721.03;;;9.90;47.90;;;;;;4974852;28;20968;-69
2022/10/13 06:05:39;;;;;;;418.33;394.67;;;9.90;48.10;;;;;;4974450;28;20894;-69
2022/10/13 06:08:05;;;;;;;770.03;714.03;;;10.00;47.70;;;;;;4974082;28;20496;-71
2022/10/13 06:10:31;;;;;;;853.27;732.37;;;10.10;47.80;;;;;;4973913;28;20771;-69
2022/10/13 06:12:56;;;;;;;874.23;804.83;;;10.00;48.00;;;;;;4972515;28;20703;-74
2022/10/13 06:15:22;;;;;;;515.43;474.03;;;10.10;48.10;;;;;;4973754;28;20185;-71
2022/10/13 06:17:47;;;;;;;365.30;340.90;;;10.30;47.50;;;;;;4974161;28;20196;-70
2022/10/13 06:20:13;;;;;;;811.00;751.23;;;10.50;46.80;;;;;;4975625;28;20243;-71
2022/10/13 06:22:38;;;;;;;683.87;633.87;;;10.70;44.50;;;;;;4973354;28;20205;-70
2022/10/13 06:25:06;;;;;;;712.10;661.00;;;10.80;45.30;;;;;;4973501;28;20180;-70
2022/10/13 06:27:31;;;;;;;659.33;610.17;;;11.00;45.70;;;;;;4973601;28;20592;-71
2022/10/13 06:29:57;;;;;;;672.33;622.80;;;11.10;45.70;;;;;;4973680;28;20425;-70
2022/10/13 06:32:22;;;;;;;500.50;457.70;;;11.30;43.80;;;;;;4973834;28;20529;-69
2022/10/13 06:34:48;;;;;;;392.50;366.97;;;11.40;43.20;;;;;;4974412;28;20194;-69
2022/10/13 06:37:14;;;;;;;893.63;823.97;;;11.60;42.70;;;;;;4973562;28;20188;-69
2022/10/13 06:39:40;;;;;;;421.23;393.77;;;11.70;42.80;;;;;;4973563;28;20472;-69
2022/10/13 06:42:06;;;;;;;819.77;754.07;;;11.70;42.80;;;;;;4973715;28;20303;-70
2022/10/13 06:44:32;;;;;;;816.60;746.77;;;11.90;38.90;;;;;;4973514;28;20548;-69
2022/10/13 06:46:57;;;;;;;910.97;813.90;;;12.00;37.90;;;;;;4973349;28;20185;-69
2022/10/13 06:49:23;;;;;;;442.53;416.47;;;12.10;37.70;;;;;;4973758;28;20205;-69
2022/10/13 06:51:49;;;;;;;664.47;616.80;;;12.10;38.90;;;;;;4973930;28;20175;-69
2022/10/13 06:54:15;;;;;;;412.33;383.13;;;12.20;38.90;;;;;;4973474;28;20437;-69
2022/10/13 06:56:40;;;;;;;374.10;350.93;;;12.30;36.50;;;;;;4972554;28;20571;-68
2022/10/13 06:59:06;;;;;;;384.87;364.33;;;12.40;35.40;;;;;;4974173;28;20521;-68
2022/10/13 07:01:31;;;;;;;542.00;504.40;;;12.60;35.40;;;;;;4974153;28;20223;-69
2022/10/13 07:03:57;;;;;;;609.43;568.57;;;12.70;35.90;;;;;;4973664;28;20615;-69
2022/10/13 07:06:23;;;;;;;989.63;899.23;;;12.90;35.90;;;;;;4973159;28;20600;-69
2022/10/13 07:08:48;;;;;;;600.27;556.47;;;13.00;33.60;;;;;;4973214;28;20709;-68
2022/10/13 07:11:14;;;;;;;831.23;750.33;;;13.20;33.10;;;;;;4972772;28;20181;-69
2022/10/13 07:13:41;;;;;;;913.40;829.27;;;13.40;32.40;;;;;;4977024;28;20737;-70
2022/10/13 07:16:08;;;;;;;862.27;780.03;;;13.70;31.20;;;;;;4977216;28;20444;-68
2022/10/13 07:18:34;;;;;;;453.40;425.10;;;13.90;29.40;;;;;;4977656;28;20432;-69
2022/10/13 07:21:00;;;;;;;460.07;421.57;;;14.10;28.60;;;;;;4976692;28;20464;-69
2022/10/13 07:23:26;;;;;;;426.67;394.23;;;14.30;28.10;;;;;;4977805;28;20431;-69
2022/10/13 07:25:52;;;;;;;808.13;728.00;;;14.30;28.20;;;;;;4979953;28;20471;-69
2022/10/13 07:28:18;;;;;;;764.50;686.60;;;14.50;27.00;;;;;;4977747;28;20416;-69
2022/10/13 07:30:44;;;;;;;678.87;616.40;;;14.50;26.90;;;;;;4977228;28;20775;-69
2022/10/13 07:33:10;;;;;;;554.33;501.57;;;14.50;26.30;;;;;;4971172;28;20563;-68
2022/10/13 07:35:39;;;;;;;409.27;378.87;;;14.60;26.70;;;;;;4973083;28;20681;-69
2022/10/13 07:38:06;;;;;;;532.73;484.93;;;14.60;25.80;;;;;;4974406;28;20531;-69
2022/10/13 07:40:31;;;;;;;759.07;689.30;;;14.60;25.80;;;;;;4972653;28;20468;-67
2022/10/13 07:43:01;;;;;;;468.57;428.23;;;14.80;25.90;;;;;;4972942;28;20425;-71
2022/10/13 07:45:27;;;;;;;837.20;729.37;;;14.90;25.90;;;;;;4972914;28;20185;-69
2022/10/13 07:47:52;;;;;;;478.97;437.70;;;15.00;25.30;;;;;;4973826;28;20465;-69
2022/10/13 07:50:19;;;;;;;573.70;520.57;;;15.20;25.30;;;;;;4973180;28;20189;-70
2022/10/13 07:52:44;;;;;;;1014.37;902.80;;;15.40;25.00;;;;;;4972300;28;20258;-69
2022/10/13 07:55:11;;;;;;;321.03;296.40;;;15.50;24.00;;;;;;4972075;28;20421;-69
2022/10/13 07:57:37;;;;;;;779.30;697.17;;;15.60;23.90;;;;;;4973317;28;20201;-70
2022/10/13 08:00:08;;;;;;;984.50;802.23;;;15.70;22.80;;;;;;4972333;28;20487;-69
2022/10/13 08:02:34;;;;;;;780.30;683.33;;;15.80;22.40;;;;;;4971951;28;20433;-69
2022/10/13 08:05:01;;;;;;;663.87;609.13;;;15.90;22.40;;;;;;4971944;28;20756;-69
2022/10/13 08:07:26;;;;;;;642.30;592.70;;;16.00;22.50;;;;;;4973057;28;20185;-69
2022/10/13 08:09:52;;;;;;;392.53;364.90;;;16.10;21.90;;;;;;4971797;28;20424;-70
2022/10/13 08:12:17;;;;;;;277.43;258.60;;;16.30;22.70;;;;;;4971746;28;20220;-70
2022/10/13 08:14:43;;;;;;;568.90;529.80;;;16.30;21.70;;;;;;4972275;28;20212;-70
2022/10/13 08:17:08;;;;;;;427.40;394.00;;;16.40;21.00;;;;;;4972976;28;20541;-70
2022/10/13 08:19:34;;;;;;;404.00;376.70;;;16.50;20.50;;;;;;4972004;28;20646;-69
2022/10/13 08:21:59;;;;;;;462.27;428.67;;;16.90;20.10;;;;;;4971672;28;20181;-70
2022/10/13 08:24:26;;;;;;;474.40;439.57;;;17.00;19.50;;;;;;4969802;28;20201;-68
2022/10/13 08:26:51;;;;;;;541.20;498.47;;;16.80;20.10;;;;;;4970853;28;20189;-69
2022/10/13 08:29:17;;;;;;;453.23;417.87;;;16.40;19.70;;;;;;4971597;28;20480;-69
2022/10/13 08:31:43;;;;;;;431.03;399.03;;;16.70;19.50;;;;;;4951057;28;20202;-69
2022/10/13 08:34:09;;;;;;;491.70;457.83;;;16.80;18.70;;;;;;4960203;28;20608;-70
2022/10/13 08:36:36;;;;;;;363.27;334.03;;;16.70;18.70;;;;;;4971948;28;20196;-70
2022/10/13 08:39:02;;;;;;;401.17;369.77;;;16.60;18.60;;;;;;4970841;28;20435;-70
2022/10/13 08:41:39;;;;;;;291.87;271.30;;;16.60;18.80;;;;;;4971551;28;20780;-70
2022/10/13 08:44:20;;;;;;;405.60;377.93;;;16.70;19.20;;;;;;4970844;28;20456;-70
2022/10/13 08:46:52;;;;;;;354.37;327.20;;;16.80;18.70;;;;;;4963441;28;20429;-70
2022/10/13 08:49:18;;;;;;;408.57;376.60;;;16.70;18.60;;;;;;4952945;28;20433;-69
2022/10/13 08:51:44;;;;;;;383.13;353.60;;;16.30;19.30;;;;;;4952200;28;20430;-70
2022/10/13 08:54:14;;;;;;;349.70;321.77;;;16.40;19.80;;;;;;4950784;28;20228;-70
2022/10/13 08:56:41;;;;;;;478.20;442.33;;;16.20;20.30;;;;;;4950353;29;20201;-69
2022/10/13 08:59:13;;;;;;;513.40;477.87;;;16.10;20.10;;;;;;4951418;28;20593;-69
2022/10/13 09:01:40;;;;;;;462.40;427.77;;;16.00;20.70;;;;;;4951076;28;20417;-69
2022/10/13 09:04:35;;;;;;;531.40;491.90;;;16.10;21.00;;;;;;4951457;28;20509;-70
2022/10/13 09:07:13;;;;;;;498.47;461.57;;;16.00;20.70;;;;;;4951953;28;20432;-69
2022/10/13 09:09:38;;;;;;;557.23;514.47;;;16.20;21.20;;;;;;4952285;28;20938;-69
2022/10/13 09:12:04;;;;;;;419.97;387.43;;;16.30;21.10;;;;;;4951006;28;20492;-69
2022/10/13 09:14:33;;;;;;;559.07;515.20;;;16.40;20.90;;;;;;4949778;29;20312;-70
2022/10/13 09:17:18;;;;;;;540.60;499.40;;;16.40;20.20;;;;;;4951478;28;20190;-70
2022/10/13 09:20:00;;;;;;;487.87;455.83;;;16.50;20.30;;;;;;4949469;29;21069;-69
2022/10/13 09:22:35;;;;;;;493.07;453.40;;;16.70;19.70;;;;;;4950861;28;20990;-70
2022/10/13 09:25:07;;;;;;;407.73;375.33;;;16.80;19.50;;;;;;4950843;28;20548;-70
2022/10/13 09:27:53;;;;;;;512.40;475.00;;;16.90;19.50;;;;;;4950604;28;20862;-70
2022/10/13 09:30:37;;;;;;;500.43;466.20;;;17.10;18.90;;;;;;4950573;28;20436;-69
2022/10/13 09:33:10;;;;;;;443.27;411.83;;;17.00;19.50;;;;;;4950895;28;20453;-70
2022/10/13 09:36:05;;;;;;;701.63;641.10;;;17.10;19.20;;;;;;4949937;28;20429;-70
2022/10/13 09:38:31;;;;;;;496.37;457.20;;;17.00;20.00;;;;;;4950521;28;20861;-69
2022/10/13 09:41:08;;;;;;;532.43;490.03;;;17.10;19.90;;;;;;4951297;29;20563;-69
2022/10/13 09:43:56;;;;;;;244.33;224.17;;;17.20;19.70;;;;;;4915404;28;1057998;-70
2022/10/13 09:46:28;;;;;;;361.97;335.63;;;17.30;19.10;;;;;;4953755;28;20711;-70
2022/10/13 09:49:19;;;;;;;419.23;388.03;;;17.50;19.20;;;;;;4956149;28;20453;-69
2022/10/13 09:51:45;;;;;;;517.53;478.47;;;17.60;18.40;;;;;;4954807;28;20436;-69
2022/10/13 09:54:34;;;;;;;531.83;487.60;;;17.40;18.30;;;;;;4955196;29;20528;-69
2022/10/13 09:57:04;;;;;;;323.80;297.30;;;17.30;17.80;;;;;;4955193;28;20440;-69
2022/10/13 09:59:35;;;;;;;567.43;516.27;;;17.30;19.00;;;;;;4954914;28;20504;-69
2022/10/13 10:02:15;;;;;;;504.77;465.90;;;17.30;19.10;;;;;;4955537;28;20413;-69
2022/10/13 10:04:42;;;;;;;447.00;410.57;;;17.20;18.70;;;;;;4955446;28;20436;-70
2022/10/13 10:07:16;;;;;;;589.80;543.13;;;17.20;19.00;;;;;;4955098;28;20426;-70
2022/10/13 10:09:50;;;;;;;563.40;521.03;;;17.40;19.10;;;;;;4955302;28;20475;-70
2022/10/13 10:12:19;;;;;;;464.93;429.70;;;17.50;19.20;;;;;;4954821;28;20421;-70
2022/10/13 10:14:45;;;;;;;529.47;484.60;;;17.80;18.30;;;;;;4955125;28;20469;-70
2022/10/13 10:17:25;;;;;;;393.27;363.00;;;17.90;17.10;;;;;;4953767;28;20875;-69
2022/10/13 10:20:17;;;;;;;557.17;515.33;;;17.80;18.10;;;;;;4955209;28;20216;-70
2022/10/13 10:23:15;;;;;;;513.43;477.43;;;17.90;18.20;;;;;;4961337;28;20785;-69
2022/10/13 10:25:52;;;;;;;357.73;327.83;;;18.10;17.20;;;;;;4974271;28;20435;-68
2022/10/13 10:28:36;;;;;;;536.17;498.73;;;18.20;16.80;;;;;;4974671;28;20413;-69
2022/10/13 10:31:30;;;;;;;465.23;429.43;;;18.00;17.10;;;;;;4973868;28;20416;-69
2022/10/13 10:34:06;;;;;;;448.57;413.83;;;18.10;17.30;;;;;;4970913;28;20448;-68
2022/10/13 10:37:00;;;;;;;715.10;654.47;;;18.30;17.40;;;;;;4968240;28;20435;-70
2022/10/13 10:39:45;;;;;;;476.97;441.17;;;18.10;17.40;;;;;;4974497;28;20467;-70
2022/10/13 10:42:38;;;;;;;478.67;443.73;;;17.80;18.20;;;;;;4973643;28;20405;-70
2022/10/13 10:45:11;;;;;;;311.60;288.57;;;17.90;17.50;;;;;;4972434;28;21036;-69
2022/10/13 10:47:41;;;;;;;588.03;540.33;;;18.10;17.10;;;;;;4973566;28;20432;-68
2022/10/13 10:50:12;;;;;;;467.07;431.60;;;18.10;17.00;;;;;;4974460;28;20448;-70
2022/10/13 10:52:55;;;;;;;320.83;294.73;;;17.90;17.80;;;;;;4972949;28;20432;-69
2022/10/13 10:55:37;;;;;;;411.27;379.37;;;17.90;17.60;;;;;;4974211;28;20416;-70
2022/10/13 10:58:20;;;;;;;273.27;252.07;;;18.10;17.10;;;;;;4973698;28;20424;-70
2022/10/13 11:01:28;;;;;;;542.00;499.13;;;17.90;18.40;;;;;;4974030;28;20791;-70
2022/10/13 11:04:15;;;;;;;541.60;502.17;;;17.80;17.50;;;;;;4973371;28;20539;-70
2022/10/13 11:06:40;;;;;;;473.23;443.90;;;17.70;18.20;;;;;;4973732;28;20730;-69
2022/10/13 11:09:09;;;;;;;619.93;580.93;;;17.80;17.80;;;;;;4973413;28;20417;-69
2022/10/13 11:11:38;;;;;;;642.57;597.97;;;18.00;18.00;;;;;;4973038;28;20185;-69
2022/10/13 11:14:06;;;;;;;699.80;645.33;;;17.60;18.00;;;;;;4972972;28;20780;-70
2022/10/13 11:16:34;;;;;;;463.63;428.50;;;17.40;19.10;;;;;;4973035;28;20793;-70
2022/10/13 11:19:06;;;;;;;527.30;489.90;;;17.60;18.80;;;;;;4973689;28;20431;-70
2022/10/13 11:21:52;;;;;;;469.50;430.97;;;17.90;17.90;;;;;;4973654;28;20440;-71
2022/10/13 11:24:40;;;;;;;562.07;520.73;;;18.20;17.90;;;;;;4969669;28;20441;-70
2022/10/13 11:27:14;;;;;;;648.97;596.37;;;18.00;18.10;;;;;;4974308;28;20393;-70
2022/10/13 11:29:43;;;;;;;371.47;342.50;;;17.90;18.30;;;;;;4972884;28;20420;-70
2022/10/13 11:32:29;;;;;;;627.70;584.07;;;17.80;18.50;;;;;;4973744;28;20795;-70
2022/10/13 11:35:03;;;;;;;584.13;540.03;;;18.20;18.20;;;;;;4972590;28;20498;-70
2022/10/13 11:37:57;;;;;;;633.53;588.00;;;18.20;17.40;;;;;;4974461;28;20412;-70
2022/10/13 11:40:39;;;;;;;570.93;533.10;;;18.20;18.10;;;;;;4974450;28;20646;-70
2022/10/13 11:43:17;;;;;;;429.23;396.17;;;18.20;17.80;;;;;;4973892;28;20450;-70
2022/10/13 11:46:05;;;;;;;586.80;545.83;;;18.60;16.30;;;;;;4971737;28;20503;-70
2022/10/13 11:48:30;;;;;;;499.57;464.13;;;18.80;16.70;;;;;;4973024;28;20440;-70
2022/10/13 11:51:22;;;;;;;537.50;495.93;;;18.70;16.60;;;;;;4972861;28;20412;-70
2022/10/13 11:54:07;;;;;;;673.47;622.23;;;18.70;16.40;;;;;;4970454;28;20193;-70
2022/10/13 11:56:46;;;;;;;673.03;628.47;;;18.70;17.40;;;;;;4972158;28;20522;-70
2022/10/13 11:59:28;;;;;;;426.97;395.40;;;18.80;17.30;;;;;;4976591;28;20961;-70
2022/10/13 12:02:17;;;;;;;595.37;559.57;;;18.90;16.00;;;;;;4976052;28;20417;-70
2022/10/13 12:04:44;;;;;;;627.90;582.30;;;19.00;15.80;;;;;;4976825;28;20440;-71
2022/10/13 12:07:13;;;;;;;368.57;341.27;;;19.30;16.10;;;;;;4970430;28;20810;-69
2022/10/13 12:09:53;;;;;;;492.33;456.20;;;19.50;15.10;;;;;;4972291;28;20512;-69
2022/10/13 12:12:20;;;;;;;647.93;598.83;;;19.50;15.10;;;;;;4971945;28;20439;-69
2022/10/13 12:14:49;;;;;;;669.33;623.37;;;19.40;15.40;;;;;;4972785;28;20511;-69
2022/10/13 12:17:34;;;;;;;556.27;517.23;;;19.20;16.00;;;;;;4973040;28;20459;-70
2022/10/13 12:20:03;;;;;;;442.30;407.80;;;19.20;16.00;;;;;;4971621;28;20976;-69
2022/10/13 12:22:29;;;;;;;549.47;516.20;;;19.10;16.00;;;;;;4972717;28;20783;-70
2022/10/13 12:25:03;;;;;;;621.20;573.53;;;19.30;16.00;;;;;;4971896;28;20440;-69
2022/10/13 12:27:38;;;;;;;519.03;481.03;;;19.50;16.20;;;;;;4970067;28;20522;-70
2022/10/13 12:30:23;;;;;;;409.00;379.17;;;19.60;14.90;;;;;;4970072;28;20812;-70